sensor_id;sensor_type;location;lat;lon;timestamp;temperature;humidity
52615;DHT22;38508;53.158;6.614;2022-12-18T00:02:15;-1.50;99.90
52615;DHT22;38508;53.158;6.614;2022-12-18T00:04:41;-1.20;99.90
52615;DHT22;38508;53.158;6.614;2022-12-18T00:07:07;-1.10;99.90
52615;DHT22;38508;53.158;6.614;2022-12-18T00:09:33;-1.20;99.90
52615;DHT22;38508;53.158;6.614;2022-12-18T00:11:58;-1.10;99.90
52615;DHT22;38508;53.158;6.614;2022-12-18T00:14:24;-1.20;99.90
52615;DHT22;38508;53.158;6.614;2022-12-18T00:16:50;-1.20;99.90
52615;DHT22;38508;53.158;6.614;2022-12-18T00:19:15;-1.30;99.90
52615;DHT22;38508;53.158;6.614;2022-12-18T00:21:42;-1.30;99.90
52615;DHT22;38508;53.158;6.614;2022-12-18T00:24:09;-1.30;99.90
52615;DHT22;38508;53.158;6.614;2022-12-18T00:26:36;-1.20;99.90
52615;DHT22;38508;53.158;6.614;2022-12-18T00:29:09;-1.20;99.90
52615;DHT22;38508;53.158;6.614;2022-12-18T00:31:36;-1.20;99.90
52615;DHT22;38508;53.158;6.614;2022-12-18T00:34:03;-1.50;99.90
52615;DHT22;38508;53.158;6.614;2022-12-18T00:36:33;-1.40;99.90
52615;DHT22;38508;53.158;6.614;2022-12-18T00:39:01;-1.40;99.90
52615;DHT22;38508;53.158;6.614;2022-12-18T00:41:28;-1.50;99.90
52615;DHT22;38508;53.158;6.614;2022-12-18T00:44:15;-1.60;99.90
52615;DHT22;38508;53.158;6.614;2022-12-18T00:46:42;-1.70;99.90
52615;DHT22;38508;53.158;6.614;2022-12-18T00:49:08;-1.40;99.90
52615;DHT22;38508;53.158;6.614;2022-12-18T00:51:34;-1.40;99.90
52615;DHT22;38508;53.158;6.614;2022-12-18T00:53:59;-1.60;99.90
52615;DHT22;38508;53.158;6.614;2022-12-18T00:56:26;-1.50;99.90
52615;DHT22;38508;53.158;6.614;2022-12-18T00:58:51;-1.40;99.90
52615;DHT22;38508;53.158;6.614;2022-12-18T01:01:17;-1.30;99.90
52615;DHT22;38508;53.158;6.614;2022-12-18T01:03:43;-1.20;99.90
52615;DHT22;38508;53.158;6.614;2022-12-18T01:06:12;-1.30;99.90
52615;DHT22;38508;53.158;6.614;2022-12-18T01:08:38;-1.30;99.90
52615;DHT22;38508;53.158;6.614;2022-12-18T01:11:19;-1.30;99.90
52615;DHT22;38508;53.158;6.614;2022-12-18T01:13:45;-1.40;99.90
52615;DHT22;38508;53.158;6.614;2022-12-18T01:16:13;-1.50;99.90
52615;DHT22;38508;53.158;6.614;2022-12-18T01:18:39;-1.70;99.90
52615;DHT22;38508;53.158;6.614;2022-12-18T01:21:11;-1.70;99.90
52615;DHT22;38508;53.158;6.614;2022-12-18T01:23:37;-1.60;99.90
52615;DHT22;38508;53.158;6.614;2022-12-18T01:26:11;-1.50;99.90
52615;DHT22;38508;53.158;6.614;2022-12-18T01:28:39;-1.50;99.90
52615;DHT22;38508;53.158;6.614;2022-12-18T01:31:16;-1.80;99.90
52615;DHT22;38508;53.158;6.614;2022-12-18T01:33:43;-2.10;99.90
52615;DHT22;38508;53.158;6.614;2022-12-18T01:36:19;-1.90;99.90
52615;DHT22;38508;53.158;6.614;2022-12-18T01:38:45;-1.90;99.90
52615;DHT22;38508;53.158;6.614;2022-12-18T01:41:11;-1.80;99.90
52615;DHT22;38508;53.158;6.614;2022-12-18T01:43:51;-1.80;99.90
52615;DHT22;38508;53.158;6.614;2022-12-18T01:46:18;-1.80;99.90
52615;DHT22;38508;53.158;6.614;2022-12-18T01:48:47;-1.90;99.90
52615;DHT22;38508;53.158;6.614;2022-12-18T01:51:13;-1.80;99.90
52615;DHT22;38508;53.158;6.614;2022-12-18T01:53:40;-2.10;99.90
52615;DHT22;38508;53.158;6.614;2022-12-18T01:56:07;-2.10;99.90
52615;DHT22;38508;53.158;6.614;2022-12-18T01:58:54;-2.20;99.90
52615;DHT22;38508;53.158;6.614;2022-12-18T02:01:23;-2.20;99.90
52615;DHT22;38508;53.158;6.614;2022-12-18T02:03:49;-2.00;99.90
52615;DHT22;38508;53.158;6.614;2022-12-18T02:06:34;-1.90;99.90
52615;DHT22;38508;53.158;6.614;2022-12-18T02:09:04;-1.90;99.90
52615;DHT22;38508;53.158;6.614;2022-12-18T02:14:27;-2.00;99.90
52615;DHT22;38508;53.158;6.614;2022-12-18T02:19:51;-2.00;99.90
52615;DHT22;38508;53.158;6.614;2022-12-18T02:27:32;-2.00;99.90
52615;DHT22;38508;53.158;6.614;2022-12-18T02:30:01;-1.90;99.90
52615;DHT22;38508;53.158;6.614;2022-12-18T02:32:32;-1.80;99.90
52615;DHT22;38508;53.158;6.614;2022-12-18T02:35:01;-2.00;99.90
52615;DHT22;38508;53.158;6.614;2022-12-18T02:37:28;-1.60;99.90
52615;DHT22;38508;53.158;6.614;2022-12-18T02:39:56;-2.10;99.90
52615;DHT22;38508;53.158;6.614;2022-12-18T02:42:23;-2.10;99.90
52615;DHT22;38508;53.158;6.614;2022-12-18T02:44:50;-1.90;99.90
52615;DHT22;38508;53.158;6.614;2022-12-18T02:47:19;-1.80;99.90
52615;DHT22;38508;53.158;6.614;2022-12-18T02:50:05;-1.90;99.90
52615;DHT22;38508;53.158;6.614;2022-12-18T02:52:58;-2.10;99.90
52615;DHT22;38508;53.158;6.614;2022-12-18T02:58:20;-2.20;99.90
52615;DHT22;38508;53.158;6.614;2022-12-18T03:01:02;-2.40;99.90
52615;DHT22;38508;53.158;6.614;2022-12-18T03:03:41;-2.30;99.90
52615;DHT22;38508;53.158;6.614;2022-12-18T03:06:18;-2.20;99.90
52615;DHT22;38508;53.158;6.614;2022-12-18T03:08:49;-2.10;99.90
52615;DHT22;38508;53.158;6.614;2022-12-18T03:11:16;-2.10;99.90
52615;DHT22;38508;53.158;6.614;2022-12-18T03:14:02;-2.10;99.90
52615;DHT22;38508;53.158;6.614;2022-12-18T03:16:31;-2.00;99.90
52615;DHT22;38508;53.158;6.614;2022-12-18T03:19:01;-2.00;99.90
52615;DHT22;38508;53.158;6.614;2022-12-18T03:21:37;-2.00;99.90
52615;DHT22;38508;53.158;6.614;2022-12-18T03:24:06;-1.90;99.90
52615;DHT22;38508;53.158;6.614;2022-12-18T03:26:34;-1.70;99.90
52615;DHT22;38508;53.158;6.614;2022-12-18T03:29:05;-1.60;99.90
52615;DHT22;38508;53.158;6.614;2022-12-18T03:31:35;-1.60;99.90
52615;DHT22;38508;53.158;6.614;2022-12-18T03:34:04;-1.60;99.90
52615;DHT22;38508;53.158;6.614;2022-12-18T03:36:34;-1.80;99.90
52615;DHT22;38508;53.158;6.614;2022-12-18T03:38:59;-1.90;99.90
52615;DHT22;38508;53.158;6.614;2022-12-18T03:47:29;-1.90;99.90
52615;DHT22;38508;53.158;6.614;2022-12-18T03:52:33;-2.00;99.90
52615;DHT22;38508;53.158;6.614;2022-12-18T03:55:02;-2.00;99.90
52615;DHT22;38508;53.158;6.614;2022-12-18T03:57:30;-2.10;99.90
52615;DHT22;38508;53.158;6.614;2022-12-18T04:00:09;-2.20;99.90
52615;DHT22;38508;53.158;6.614;2022-12-18T04:02:38;-2.10;99.90
52615;DHT22;38508;53.158;6.614;2022-12-18T04:05:07;-2.10;99.90
52615;DHT22;38508;53.158;6.614;2022-12-18T04:07:34;-2.30;99.90
52615;DHT22;38508;53.158;6.614;2022-12-18T04:10:02;-2.30;99.90
52615;DHT22;38508;53.158;6.614;2022-12-18T04:12:29;-2.30;99.90
52615;DHT22;38508;53.158;6.614;2022-12-18T04:14:55;-2.20;99.90
52615;DHT22;38508;53.158;6.614;2022-12-18T04:17:22;-2.30;99.90
52615;DHT22;38508;53.158;6.614;2022-12-18T04:19:48;-2.50;99.90
52615;DHT22;38508;53.158;6.614;2022-12-18T04:22:13;-2.50;99.90
52615;DHT22;38508;53.158;6.614;2022-12-18T04:24:39;-2.40;99.90
52615;DHT22;38508;53.158;6.614;2022-12-18T04:27:05;-2.40;99.90
52615;DHT22;38508;53.158;6.614;2022-12-18T04:29:31;-2.50;99.90
52615;DHT22;38508;53.158;6.614;2022-12-18T04:31:56;-2.40;99.90
52615;DHT22;38508;53.158;6.614;2022-12-18T04:34:22;-2.40;99.90
52615;DHT22;38508;53.158;6.614;2022-12-18T04:36:48;-2.30;99.90
52615;DHT22;38508;53.158;6.614;2022-12-18T04:39:14;-2.20;99.90
52615;DHT22;38508;53.158;6.614;2022-12-18T04:41:44;-2.20;99.80
52615;DHT22;38508;53.158;6.614;2022-12-18T04:44:10;-2.10;99.60
52615;DHT22;38508;53.158;6.614;2022-12-18T04:46:35;-2.30;99.50
52615;DHT22;38508;53.158;6.614;2022-12-18T04:49:01;-2.30;99.40
52615;DHT22;38508;53.158;6.614;2022-12-18T04:51:27;-2.20;99.50
52615;DHT22;38508;53.158;6.614;2022-12-18T04:53:53;-2.30;99.20
52615;DHT22;38508;53.158;6.614;2022-12-18T04:56:19;-2.30;99.50
52615;DHT22;38508;53.158;6.614;2022-12-18T04:58:45;-2.70;99.30
52615;DHT22;38508;53.158;6.614;2022-12-18T05:01:12;-2.70;99.80
52615;DHT22;38508;53.158;6.614;2022-12-18T05:03:39;-2.60;99.70
52615;DHT22;38508;53.158;6.614;2022-12-18T05:06:05;-2.50;99.70
52615;DHT22;38508;53.158;6.614;2022-12-18T05:08:31;-2.60;99.70
52615;DHT22;38508;53.158;6.614;2022-12-18T05:11:06;-2.70;99.50
52615;DHT22;38508;53.158;6.614;2022-12-18T05:13:33;-2.60;99.70
52615;DHT22;38508;53.158;6.614;2022-12-18T05:15:59;-2.40;99.70
52615;DHT22;38508;53.158;6.614;2022-12-18T05:18:25;-2.30;99.50
52615;DHT22;38508;53.158;6.614;2022-12-18T05:20:52;-2.50;99.20
52615;DHT22;38508;53.158;6.614;2022-12-18T05:23:19;-2.40;99.40
52615;DHT22;38508;53.158;6.614;2022-12-18T05:25:56;-2.30;99.30
52615;DHT22;38508;53.158;6.614;2022-12-18T05:28:23;-2.20;99.20
52615;DHT22;38508;53.158;6.614;2022-12-18T05:30:53;-2.30;99.10
52615;DHT22;38508;53.158;6.614;2022-12-18T05:33:20;-2.40;99.00
52615;DHT22;38508;53.158;6.614;2022-12-18T05:35:57;-2.50;99.00
52615;DHT22;38508;53.158;6.614;2022-12-18T05:38:24;-2.60;99.10
52615;DHT22;38508;53.158;6.614;2022-12-18T05:40:51;-2.60;99.30
52615;DHT22;38508;53.158;6.614;2022-12-18T05:43:18;-2.70;99.20
52615;DHT22;38508;53.158;6.614;2022-12-18T05:45:44;-2.70;99.30
52615;DHT22;38508;53.158;6.614;2022-12-18T05:48:10;-2.60;99.40
52615;DHT22;38508;53.158;6.614;2022-12-18T05:50:37;-2.60;99.30
52615;DHT22;38508;53.158;6.614;2022-12-18T05:53:04;-2.40;99.30
52615;DHT22;38508;53.158;6.614;2022-12-18T05:55:37;-2.40;99.10
52615;DHT22;38508;53.158;6.614;2022-12-18T05:58:04;-2.40;99.00
52615;DHT22;38508;53.158;6.614;2022-12-18T06:00:31;-2.30;99.10
52615;DHT22;38508;53.158;6.614;2022-12-18T06:02:58;-2.30;99.00
52615;DHT22;38508;53.158;6.614;2022-12-18T06:05:24;-2.20;98.90
52615;DHT22;38508;53.158;6.614;2022-12-18T06:07:50;-2.20;98.70
52615;DHT22;38508;53.158;6.614;2022-12-18T06:10:16;-2.30;98.90
52615;DHT22;38508;53.158;6.614;2022-12-18T06:12:42;-2.50;98.60
52615;DHT22;38508;53.158;6.614;2022-12-18T06:15:08;-2.50;98.90
52615;DHT22;38508;53.158;6.614;2022-12-18T06:17:34;-2.40;98.90
52615;DHT22;38508;53.158;6.614;2022-12-18T06:20:00;-2.40;98.90
52615;DHT22;38508;53.158;6.614;2022-12-18T06:22:26;-2.40;98.70
52615;DHT22;38508;53.158;6.614;2022-12-18T06:24:52;-2.40;98.60
52615;DHT22;38508;53.158;6.614;2022-12-18T06:27:18;-2.50;98.70
52615;DHT22;38508;53.158;6.614;2022-12-18T06:29:43;-2.40;98.90
52615;DHT22;38508;53.158;6.614;2022-12-18T06:32:09;-2.40;98.90
52615;DHT22;38508;53.158;6.614;2022-12-18T06:34:37;-2.40;98.80
52615;DHT22;38508;53.158;6.614;2022-12-18T06:37:03;-2.30;98.80
52615;DHT22;38508;53.158;6.614;2022-12-18T06:39:29;-2.30;98.60
52615;DHT22;38508;53.158;6.614;2022-12-18T06:41:54;-2.40;98.60
52615;DHT22;38508;53.158;6.614;2022-12-18T06:44:20;-2.30;98.70
52615;DHT22;38508;53.158;6.614;2022-12-18T06:46:46;-2.40;98.50
52615;DHT22;38508;53.158;6.614;2022-12-18T06:49:11;-2.50;98.60
52615;DHT22;38508;53.158;6.614;2022-12-18T06:51:37;-2.40;98.60
52615;DHT22;38508;53.158;6.614;2022-12-18T06:54:03;-2.40;98.70
52615;DHT22;38508;53.158;6.614;2022-12-18T06:56:29;-2.30;98.70
52615;DHT22;38508;53.158;6.614;2022-12-18T06:58:55;-2.40;98.50
52615;DHT22;38508;53.158;6.614;2022-12-18T07:01:21;-2.50;98.50
52615;DHT22;38508;53.158;6.614;2022-12-18T07:03:52;-2.50;98.70
52615;DHT22;38508;53.158;6.614;2022-12-18T07:06:20;-2.40;98.70
52615;DHT22;38508;53.158;6.614;2022-12-18T07:08:47;-2.50;98.50
52615;DHT22;38508;53.158;6.614;2022-12-18T07:11:14;-2.40;98.60
52615;DHT22;38508;53.158;6.614;2022-12-18T07:13:39;-2.40;98.60
52615;DHT22;38508;53.158;6.614;2022-12-18T07:16:10;-2.60;98.50
52615;DHT22;38508;53.158;6.614;2022-12-18T07:18:36;-2.70;98.60
52615;DHT22;38508;53.158;6.614;2022-12-18T07:21:04;-2.80;98.80
52615;DHT22;38508;53.158;6.614;2022-12-18T07:23:31;-2.70;98.90
52615;DHT22;38508;53.158;6.614;2022-12-18T07:26:02;-2.60;98.90
52615;DHT22;38508;53.158;6.614;2022-12-18T07:28:28;-2.50;98.70
52615;DHT22;38508;53.158;6.614;2022-12-18T07:30:53;-2.50;98.70
52615;DHT22;38508;53.158;6.614;2022-12-18T07:33:19;-2.50;98.70
52615;DHT22;38508;53.158;6.614;2022-12-18T07:35:45;-2.50;98.70
52615;DHT22;38508;53.158;6.614;2022-12-18T07:38:10;-2.40;98.70
52615;DHT22;38508;53.158;6.614;2022-12-18T07:40:36;-2.30;98.60
52615;DHT22;38508;53.158;6.614;2022-12-18T07:43:02;-2.30;98.50
52615;DHT22;38508;53.158;6.614;2022-12-18T07:45:30;-2.30;98.40
52615;DHT22;38508;53.158;6.614;2022-12-18T07:47:56;-2.20;98.50
52615;DHT22;38508;53.158;6.614;2022-12-18T07:50:21;-2.20;98.50
52615;DHT22;38508;53.158;6.614;2022-12-18T07:52:47;-2.20;98.30
52615;DHT22;38508;53.158;6.614;2022-12-18T07:55:13;-2.30;98.10
52615;DHT22;38508;53.158;6.614;2022-12-18T07:57:39;-2.50;98.10
52615;DHT22;38508;53.158;6.614;2022-12-18T08:00:05;-2.50;98.20
52615;DHT22;38508;53.158;6.614;2022-12-18T08:02:31;-2.50;98.20
52615;DHT22;38508;53.158;6.614;2022-12-18T08:04:57;-2.50;98.40
52615;DHT22;38508;53.158;6.614;2022-12-18T08:07:23;-2.40;98.50
52615;DHT22;38508;53.158;6.614;2022-12-18T08:09:49;-2.40;98.40
52615;DHT22;38508;53.158;6.614;2022-12-18T08:12:14;-2.30;98.40
52615;DHT22;38508;53.158;6.614;2022-12-18T08:14:40;-2.30;98.40
52615;DHT22;38508;53.158;6.614;2022-12-18T08:17:06;-2.30;98.30
52615;DHT22;38508;53.158;6.614;2022-12-18T08:19:31;-2.30;98.40
52615;DHT22;38508;53.158;6.614;2022-12-18T08:21:57;-2.50;98.30
52615;DHT22;38508;53.158;6.614;2022-12-18T08:24:22;-2.40;98.50
52615;DHT22;38508;53.158;6.614;2022-12-18T08:26:48;-2.30;98.50
52615;DHT22;38508;53.158;6.614;2022-12-18T08:29:14;-2.40;98.50
52615;DHT22;38508;53.158;6.614;2022-12-18T08:31:39;-2.40;98.30
52615;DHT22;38508;53.158;6.614;2022-12-18T08:34:05;-2.40;98.30
52615;DHT22;38508;53.158;6.614;2022-12-18T08:36:31;-2.40;98.20
52615;DHT22;38508;53.158;6.614;2022-12-18T08:38:57;-2.50;98.30
52615;DHT22;38508;53.158;6.614;2022-12-18T08:41:23;-2.60;98.40
52615;DHT22;38508;53.158;6.614;2022-12-18T08:43:49;-2.50;98.50
52615;DHT22;38508;53.158;6.614;2022-12-18T08:46:41;-2.40;98.50
52615;DHT22;38508;53.158;6.614;2022-12-18T08:49:07;-2.40;98.40
52615;DHT22;38508;53.158;6.614;2022-12-18T08:51:34;-2.40;98.40
52615;DHT22;38508;53.158;6.614;2022-12-18T08:54:00;-2.30;98.40
52615;DHT22;38508;53.158;6.614;2022-12-18T08:56:26;-2.30;98.20
52615;DHT22;38508;53.158;6.614;2022-12-18T08:58:53;-2.30;98.20
52615;DHT22;38508;53.158;6.614;2022-12-18T09:01:19;-2.30;98.30
52615;DHT22;38508;53.158;6.614;2022-12-18T09:03:45;-2.30;98.30
52615;DHT22;38508;53.158;6.614;2022-12-18T09:06:14;-2.20;98.40
52615;DHT22;38508;53.158;6.614;2022-12-18T09:08:41;-2.10;98.40
52615;DHT22;38508;53.158;6.614;2022-12-18T09:11:14;-2.10;98.40
52615;DHT22;38508;53.158;6.614;2022-12-18T09:13:39;-2.00;98.40
52615;DHT22;38508;53.158;6.614;2022-12-18T09:16:05;-2.10;98.20
52615;DHT22;38508;53.158;6.614;2022-12-18T09:18:31;-2.20;98.30
52615;DHT22;38508;53.158;6.614;2022-12-18T09:20:57;-2.20;98.50
52615;DHT22;38508;53.158;6.614;2022-12-18T09:23:22;-2.10;98.50
52615;DHT22;38508;53.158;6.614;2022-12-18T09:25:48;-2.00;98.40
52615;DHT22;38508;53.158;6.614;2022-12-18T09:28:16;-1.90;98.50
52615;DHT22;38508;53.158;6.614;2022-12-18T09:30:45;-1.70;98.60
52615;DHT22;38508;53.158;6.614;2022-12-18T09:33:11;-1.70;98.40
52615;DHT22;38508;53.158;6.614;2022-12-18T09:35:38;-1.70;98.40
52615;DHT22;38508;53.158;6.614;2022-12-18T09:38:04;-1.60;98.40
52615;DHT22;38508;53.158;6.614;2022-12-18T09:40:35;-1.60;98.60
52615;DHT22;38508;53.158;6.614;2022-12-18T09:43:04;-1.40;98.50
52615;DHT22;38508;53.158;6.614;2022-12-18T09:45:42;-1.50;98.50
52615;DHT22;38508;53.158;6.614;2022-12-18T09:48:34;-1.40;98.50
52615;DHT22;38508;53.158;6.614;2022-12-18T09:51:05;-1.30;98.50
52615;DHT22;38508;53.158;6.614;2022-12-18T09:53:38;-1.20;98.40
52615;DHT22;38508;53.158;6.614;2022-12-18T09:56:06;-1.20;98.40
52615;DHT22;38508;53.158;6.614;2022-12-18T09:58:41;-1.40;98.20
52615;DHT22;38508;53.158;6.614;2022-12-18T10:01:15;-1.40;98.40
52615;DHT22;38508;53.158;6.614;2022-12-18T10:03:43;-1.40;98.50
52615;DHT22;38508;53.158;6.614;2022-12-18T10:19:36;-1.10;98.50
52615;DHT22;38508;53.158;6.614;2022-12-18T10:24:43;-0.90;98.30
52615;DHT22;38508;53.158;6.614;2022-12-18T10:27:14;-0.90;98.40
52615;DHT22;38508;53.158;6.614;2022-12-18T10:29:42;-0.70;98.50
52615;DHT22;38508;53.158;6.614;2022-12-18T10:32:17;-0.60;98.30
52615;DHT22;38508;53.158;6.614;2022-12-18T10:34:47;-0.50;98.20
52615;DHT22;38508;53.158;6.614;2022-12-18T10:37:17;-0.50;98.20
52615;DHT22;38508;53.158;6.614;2022-12-18T10:39:43;-0.50;98.20
52615;DHT22;38508;53.158;6.614;2022-12-18T10:42:18;-0.50;98.30
52615;DHT22;38508;53.158;6.614;2022-12-18T10:44:45;-0.40;98.30
52615;DHT22;38508;53.158;6.614;2022-12-18T10:47:19;-0.30;98.40
52615;DHT22;38508;53.158;6.614;2022-12-18T10:49:52;-0.30;98.20
52615;DHT22;38508;53.158;6.614;2022-12-18T10:52:20;-0.50;98.20
52615;DHT22;38508;53.158;6.614;2022-12-18T10:54:57;-0.50;98.30
52615;DHT22;38508;53.158;6.614;2022-12-18T10:59:54;-0.50;98.40
52615;DHT22;38508;53.158;6.614;2022-12-18T11:02:33;-0.70;98.30
52615;DHT22;38508;53.158;6.614;2022-12-18T11:05:00;-0.80;98.60
52615;DHT22;38508;53.158;6.614;2022-12-18T11:07:49;-0.80;98.70
52615;DHT22;38508;53.158;6.614;2022-12-18T11:10:25;-0.80;98.80
52615;DHT22;38508;53.158;6.614;2022-12-18T11:12:51;-0.70;98.70
52615;DHT22;38508;53.158;6.614;2022-12-18T11:15:23;-0.60;98.80
52615;DHT22;38508;53.158;6.614;2022-12-18T11:17:51;-0.60;98.70
52615;DHT22;38508;53.158;6.614;2022-12-18T11:20:32;-0.50;98.90
52615;DHT22;38508;53.158;6.614;2022-12-18T11:23:20;-0.40;98.80
52615;DHT22;38508;53.158;6.614;2022-12-18T11:25:58;-0.40;98.60
52615;DHT22;38508;53.158;6.614;2022-12-18T11:31:19;-0.40;98.70
52615;DHT22;38508;53.158;6.614;2022-12-18T11:34:05;-0.30;98.80
52615;DHT22;38508;53.158;6.614;2022-12-18T11:36:42;-0.30;98.70
52615;DHT22;38508;53.158;6.614;2022-12-18T11:41:52;-0.10;98.70
52615;DHT22;38508;53.158;6.614;2022-12-18T11:47:42;-0.10;98.60
52615;DHT22;38508;53.158;6.614;2022-12-18T11:53:12;0.00;98.60
52615;DHT22;38508;53.158;6.614;2022-12-18T11:56:00;0.10;98.50
52615;DHT22;38508;53.158;6.614;2022-12-18T12:01:17;0.20;98.60
52615;DHT22;38508;53.158;6.614;2022-12-18T12:04:19;0.10;98.70
52615;DHT22;38508;53.158;6.614;2022-12-18T12:07:01;0.20;98.70
52615;DHT22;38508;53.158;6.614;2022-12-18T12:15:03;0.30;98.80
52615;DHT22;38508;53.158;6.614;2022-12-18T12:17:42;0.40;98.80
52615;DHT22;38508;53.158;6.614;2022-12-18T12:23:11;0.40;98.60
52615;DHT22;38508;53.158;6.614;2022-12-18T12:25:44;0.40;98.60
52615;DHT22;38508;53.158;6.614;2022-12-18T12:30:53;0.30;98.70
52615;DHT22;38508;53.158;6.614;2022-12-18T12:36:38;0.30;98.80
52615;DHT22;38508;53.158;6.614;2022-12-18T12:39:11;0.40;98.90
52615;DHT22;38508;53.158;6.614;2022-12-18T12:41:39;0.30;98.70
52615;DHT22;38508;53.158;6.614;2022-12-18T12:44:29;0.40;98.90
52615;DHT22;38508;53.158;6.614;2022-12-18T12:47:00;0.40;98.80
52615;DHT22;38508;53.158;6.614;2022-12-18T12:49:31;0.30;98.80
52615;DHT22;38508;53.158;6.614;2022-12-18T12:52:04;0.50;99.00
52615;DHT22;38508;53.158;6.614;2022-12-18T12:54:32;0.30;98.90
52615;DHT22;38508;53.158;6.614;2022-12-18T13:05:21;0.60;98.80
52615;DHT22;38508;53.158;6.614;2022-12-18T13:08:08;0.60;98.80
52615;DHT22;38508;53.158;6.614;2022-12-18T13:10:38;0.70;98.70
52615;DHT22;38508;53.158;6.614;2022-12-18T13:13:05;0.80;98.80
52615;DHT22;38508;53.158;6.614;2022-12-18T13:18:24;0.90;98.70
52615;DHT22;38508;53.158;6.614;2022-12-18T13:20:53;0.90;98.40
52615;DHT22;38508;53.158;6.614;2022-12-18T13:23:31;1.00;98.60
52615;DHT22;38508;53.158;6.614;2022-12-18T13:33:43;0.90;98.50
52615;DHT22;38508;53.158;6.614;2022-12-18T13:38:38;1.00;98.30
52615;DHT22;38508;53.158;6.614;2022-12-18T13:43:42;0.80;98.10
52615;DHT22;38508;53.158;6.614;2022-12-18T13:46:22;0.80;98.10
52615;DHT22;38508;53.158;6.614;2022-12-18T13:48:59;0.80;98.30
52615;DHT22;38508;53.158;6.614;2022-12-18T13:51:27;1.00;98.30
52615;DHT22;38508;53.158;6.614;2022-12-18T13:54:00;1.00;98.20
52615;DHT22;38508;53.158;6.614;2022-12-18T13:56:30;0.90;98.20
52615;DHT22;38508;53.158;6.614;2022-12-18T13:59:23;0.90;98.30
52615;DHT22;38508;53.158;6.614;2022-12-18T14:04:30;1.00;98.10
52615;DHT22;38508;53.158;6.614;2022-12-18T14:07:32;1.00;98.00
52615;DHT22;38508;53.158;6.614;2022-12-18T14:09:59;0.90;98.10
52615;DHT22;38508;53.158;6.614;2022-12-18T14:12:30;1.00;98.20
52615;DHT22;38508;53.158;6.614;2022-12-18T14:17:58;1.10;98.00
52615;DHT22;38508;53.158;6.614;2022-12-18T14:20:27;1.10;97.80
52615;DHT22;38508;53.158;6.614;2022-12-18T14:22:54;1.20;97.90
52615;DHT22;38508;53.158;6.614;2022-12-18T14:25:23;1.10;97.80
52615;DHT22;38508;53.158;6.614;2022-12-18T14:30:42;1.10;97.70
52615;DHT22;38508;53.158;6.614;2022-12-18T14:35:36;1.10;97.60
52615;DHT22;38508;53.158;6.614;2022-12-18T14:40:43;1.00;97.70
52615;DHT22;38508;53.158;6.614;2022-12-18T14:43:13;1.10;97.70
52615;DHT22;38508;53.158;6.614;2022-12-18T14:45:45;1.20;97.70
52615;DHT22;38508;53.158;6.614;2022-12-18T14:48:33;1.10;97.70
52615;DHT22;38508;53.158;6.614;2022-12-18T14:53:39;0.80;97.80
52615;DHT22;38508;53.158;6.614;2022-12-18T14:56:30;0.70;97.90
52615;DHT22;38508;53.158;6.614;2022-12-18T14:58:59;0.70;98.00
52615;DHT22;38508;53.158;6.614;2022-12-18T15:01:37;0.80;98.00
52615;DHT22;38508;53.158;6.614;2022-12-18T15:04:05;0.80;97.90
52615;DHT22;38508;53.158;6.614;2022-12-18T15:06:38;0.80;97.90
52615;DHT22;38508;53.158;6.614;2022-12-18T15:09:25;0.80;98.00
52615;DHT22;38508;53.158;6.614;2022-12-18T15:11:56;0.80;97.90
52615;DHT22;38508;53.158;6.614;2022-12-18T15:14:45;0.70;97.90
52615;DHT22;38508;53.158;6.614;2022-12-18T15:17:21;0.70;97.90
52615;DHT22;38508;53.158;6.614;2022-12-18T15:19:48;0.60;97.90
52615;DHT22;38508;53.158;6.614;2022-12-18T15:24:50;0.60;98.00
52615;DHT22;38508;53.158;6.614;2022-12-18T15:30:00;0.50;98.30
52615;DHT22;38508;53.158;6.614;2022-12-18T15:32:26;0.50;98.20
52615;DHT22;38508;53.158;6.614;2022-12-18T15:37:33;0.40;98.30
52615;DHT22;38508;53.158;6.614;2022-12-18T15:39:59;0.40;98.30
52615;DHT22;38508;53.158;6.614;2022-12-18T15:42:24;0.60;98.30
52615;DHT22;38508;53.158;6.614;2022-12-18T15:45:12;0.60;98.20
52615;DHT22;38508;53.158;6.614;2022-12-18T15:47:38;0.60;98.10
52615;DHT22;38508;53.158;6.614;2022-12-18T15:50:05;0.50;98.20
52615;DHT22;38508;53.158;6.614;2022-12-18T15:52:39;0.50;98.30
52615;DHT22;38508;53.158;6.614;2022-12-18T15:55:16;0.40;98.30
52615;DHT22;38508;53.158;6.614;2022-12-18T15:58:00;0.30;98.50
52615;DHT22;38508;53.158;6.614;2022-12-18T16:00:26;0.30;98.50
52615;DHT22;38508;53.158;6.614;2022-12-18T16:02:52;0.20;98.70
52615;DHT22;38508;53.158;6.614;2022-12-18T16:05:19;0.10;98.60
52615;DHT22;38508;53.158;6.614;2022-12-18T16:07:46;0.10;98.60
52615;DHT22;38508;53.158;6.614;2022-12-18T16:10:15;0.10;98.60
52615;DHT22;38508;53.158;6.614;2022-12-18T16:12:41;0.20;98.50
52615;DHT22;38508;53.158;6.614;2022-12-18T16:15:08;0.20;98.50
52615;DHT22;38508;53.158;6.614;2022-12-18T16:17:35;0.20;98.70
52615;DHT22;38508;53.158;6.614;2022-12-18T16:20:01;0.20;98.50
52615;DHT22;38508;53.158;6.614;2022-12-18T16:22:29;0.10;98.50
52615;DHT22;38508;53.158;6.614;2022-12-18T16:24:55;0.00;98.70
52615;DHT22;38508;53.158;6.614;2022-12-18T16:27:23;0.10;98.70
52615;DHT22;38508;53.158;6.614;2022-12-18T16:29:49;0.10;98.70
52615;DHT22;38508;53.158;6.614;2022-12-18T16:32:17;0.00;98.70
52615;DHT22;38508;53.158;6.614;2022-12-18T16:34:44;0.10;98.80
52615;DHT22;38508;53.158;6.614;2022-12-18T16:37:12;0.20;98.90
52615;DHT22;38508;53.158;6.614;2022-12-18T16:39:38;0.30;98.80
52615;DHT22;38508;53.158;6.614;2022-12-18T16:42:09;0.30;98.70
52615;DHT22;38508;53.158;6.614;2022-12-18T16:44:35;0.30;98.70
52615;DHT22;38508;53.158;6.614;2022-12-18T16:47:01;0.30;98.80
52615;DHT22;38508;53.158;6.614;2022-12-18T16:49:28;0.40;98.70
52615;DHT22;38508;53.158;6.614;2022-12-18T16:51:54;0.40;98.60
52615;DHT22;38508;53.158;6.614;2022-12-18T16:54:20;0.50;98.60
52615;DHT22;38508;53.158;6.614;2022-12-18T16:56:45;0.40;98.50
52615;DHT22;38508;53.158;6.614;2022-12-18T16:59:14;0.50;98.50
52615;DHT22;38508;53.158;6.614;2022-12-18T17:01:40;0.50;98.40
52615;DHT22;38508;53.158;6.614;2022-12-18T17:04:07;0.40;98.20
52615;DHT22;38508;53.158;6.614;2022-12-18T17:06:37;0.40;98.30
52615;DHT22;38508;53.158;6.614;2022-12-18T17:09:06;0.40;98.40
52615;DHT22;38508;53.158;6.614;2022-12-18T17:11:33;0.50;98.30
52615;DHT22;38508;53.158;6.614;2022-12-18T17:14:09;0.60;98.40
52615;DHT22;38508;53.158;6.614;2022-12-18T17:16:35;0.50;98.20
52615;DHT22;38508;53.158;6.614;2022-12-18T17:19:00;0.50;98.40
52615;DHT22;38508;53.158;6.614;2022-12-18T17:21:26;0.50;98.40
52615;DHT22;38508;53.158;6.614;2022-12-18T17:23:53;0.50;98.20
52615;DHT22;38508;53.158;6.614;2022-12-18T17:26:20;0.50;98.20
52615;DHT22;38508;53.158;6.614;2022-12-18T17:28:46;0.60;98.20
52615;DHT22;38508;53.158;6.614;2022-12-18T17:31:23;0.60;98.10
52615;DHT22;38508;53.158;6.614;2022-12-18T17:33:49;0.70;98.10
52615;DHT22;38508;53.158;6.614;2022-12-18T17:36:15;0.60;97.80
52615;DHT22;38508;53.158;6.614;2022-12-18T17:38:42;0.60;97.90
52615;DHT22;38508;53.158;6.614;2022-12-18T17:41:09;0.70;98.10
52615;DHT22;38508;53.158;6.614;2022-12-18T17:43:36;0.80;98.10
52615;DHT22;38508;53.158;6.614;2022-12-18T17:46:06;0.70;98.00
52615;DHT22;38508;53.158;6.614;2022-12-18T17:48:32;0.70;98.00